Time;durP1;ratioP1;P1;durP2;ratioP2;P2;SDS_P1;SDS_P2;PMS_P1;PMS_P2;Temp;Humidity;BMP_temperature;BMP_pressure;BME280_temperature;BME280_humidity;BME280_pressure;Samples;Min_cycle;Max_cycle;Signal;HPM_P1;HPM_P2
2022/09/26 00:01:30;;;;;;;37.70;26.40;;;;;;;8.86;94.81;97735.34;105195;1282;139622;-72
2022/09/26 00:04:00;;;;;;;34.20;25.50;;;;;;;8.86;94.63;97730.61;105159;1282;25364;-72
2022/09/26 00:06:28;;;;;;;37.60;26.70;;;;;;;8.85;94.48;97728.00;105083;1282;139087;-72
2022/09/26 00:08:55;;;;;;;42.10;27.80;;;;;;;8.85;94.73;97726.20;105302;1282;25268;-72
2022/09/26 00:11:28;;;;;;;41.10;27.70;;;;;;;8.85;94.66;97724.90;105185;1281;25371;-72
2022/09/26 00:13:58;;;;;;;43.40;27.30;;;;;;;8.84;94.79;97726.56;104993;1282;139150;-72
2022/09/26 00:16:25;;;;;;;41.00;28.80;;;;;;;8.84;94.98;97729.33;104988;1284;22532;-72
2022/09/26 00:18:54;;;;;;;35.00;26.10;;;;;;;8.83;95.07;97722.75;104957;1282;138821;-72
2022/09/26 00:21:24;;;;;;;34.70;25.60;;;;;;;8.82;95.03;97722.14;105053;1284;24285;-72
2022/09/26 00:23:53;;;;;;;35.60;23.80;;;;;;;8.79;94.40;97714.88;105213;1282;22712;-72
2022/09/26 00:26:21;;;;;;;38.20;26.30;;;;;;;8.73;93.83;97711.75;104914;1282;138714;-72
2022/09/26 00:28:49;;;;;;;38.50;26.60;;;;;;;8.69;94.14;97711.32;105192;1280;22567;-72
2022/09/26 00:31:22;;;;;;;37.00;23.90;;;;;;;8.68;94.43;97707.84;105155;1281;139045;-72
2022/09/26 00:33:49;;;;;;;37.60;25.30;;;;;;;8.67;94.44;97704.09;105246;1281;22569;-72
2022/09/26 00:36:17;;;;;;;36.60;25.10;;;;;;;8.67;94.62;97703.31;104886;1280;138888;-72
2022/09/26 00:38:44;;;;;;;36.20;25.70;;;;;;;8.67;94.68;97702.08;105084;1282;22572;-72
2022/09/26 00:41:15;;;;;;;37.60;26.20;;;;;;;8.67;94.80;97693.16;105220;1281;23206;-72
2022/09/26 00:43:50;;;;;;;37.40;26.40;;;;;;;8.68;94.77;97695.79;105130;1281;138818;-72
2022/09/26 00:46:36;;;;;;;36.10;25.60;;;;;;;8.69;94.73;97692.21;105051;1282;25431;-72
2022/09/26 00:49:27;;;;;;;35.50;25.00;;;;;;;8.68;94.91;97691.77;105067;1282;138692;-72
2022/09/26 00:52:13;;;;;;;38.40;25.50;;;;;;;8.68;94.87;97693.61;105222;1281;23963;-72
2022/09/26 00:54:44;;;;;;;32.60;22.40;;;;;;;8.64;94.17;97695.45;105100;1281;139075;-72
2022/09/26 00:57:20;;;;;;;38.20;24.40;;;;;;;8.51;92.75;97696.38;105066;1282;23945;-72
2022/09/26 00:59:53;;;;;;;34.60;24.40;;;;;;;8.38;93.07;97693.55;104966;1282;22690;-72
2022/09/26 01:02:24;;;;;;;40.20;24.20;;;;;;;8.31;93.51;97694.44;105041;1282;138959;-72
2022/09/26 01:04:53;;;;;;;31.40;21.60;;;;;;;8.26;93.52;97694.52;105239;1281;22752;-72
2022/09/26 01:07:23;;;;;;;34.20;22.00;;;;;;;8.17;92.66;97699.81;104883;1282;138500;-72
2022/09/26 01:09:51;;;;;;;33.10;22.60;;;;;;;8.05;92.82;97693.66;105341;1281;24283;-72
2022/09/26 01:12:20;;;;;;;36.10;23.00;;;;;;;7.96;93.16;97697.50;105060;1282;139220;-72
2022/09/26 01:14:52;;;;;;;39.40;26.60;;;;;;;7.95;94.23;97701.14;105470;1279;22538;-72
2022/09/26 01:17:24;;;;;;;40.10;27.10;;;;;;;7.95;94.29;97690.27;105410;1281;22623;-72
2022/09/26 01:20:03;;;;;;;;;;;;;;;7.96;94.61;97685.98;105207;1282;138733;-72
2022/09/26 01:22:44;;;;;;;44.00;27.20;;;;;;;7.97;95.04;97688.39;105261;1282;25416;-72
2022/09/26 01:25:45;;;;;;;42.70;29.00;;;;;;;7.99;95.53;97685.29;105279;1281;138567;-72
2022/09/26 01:28:41;;;;;;;45.70;30.10;;;;;;;8.04;95.93;97686.38;105335;1281;22631;-72
2022/09/26 01:31:29;;;;;;;45.50;30.30;;;;;;;8.10;96.30;97684.69;105297;1281;138608;-72
2022/09/26 01:34:17;;;;;;;41.10;28.80;;;;;;;8.15;96.41;97684.34;105394;1281;25474;-72
2022/09/26 01:37:10;;;;;;;44.50;29.70;;;;;;;8.21;96.73;97680.89;105279;1281;138781;-72
2022/09/26 01:40:01;;;;;;;48.30;30.50;;;;;;;8.24;96.78;97678.77;105103;1282;22868;-72
2022/09/26 01:42:41;;;;;;;44.00;29.50;;;;;;;8.29;96.88;97674.97;105438;1281;138525;-72
2022/09/26 01:45:13;;;;;;;;;;;;;;;8.33;97.11;97667.30;105250;1282;23216;-72
2022/09/26 01:47:48;;;;;;;45.60;28.20;;;;;;;8.35;97.05;97662.98;104884;1282;22597;-73
2022/09/26 01:50:40;;;;;;;45.00;30.80;;;;;;;8.40;97.29;97658.98;105087;1282;22547;-72
2022/09/26 01:53:15;;;;;;;49.90;31.50;;;;;;;8.44;97.49;97654.02;105232;1282;22577;-72
2022/09/26 01:55:50;;;;;;;47.10;31.40;;;;;;;8.49;97.83;97650.00;105247;1280;138341;-72
2022/09/26 01:58:27;;;;;;;47.60;32.20;;;;;;;8.53;97.80;97645.88;104933;1282;22623;-72
2022/09/26 02:01:08;;;;;;;43.40;30.40;;;;;;;8.59;98.02;97643.83;105216;1282;138273;-73
2022/09/26 02:03:42;;;;;;;45.80;29.00;;;;;;;8.62;98.11;97639.86;105171;1282;23918;-72
2022/09/26 02:06:14;;;;;;;47.60;33.10;;;;;;;8.66;97.94;97638.11;105233;1281;138848;-73
2022/09/26 02:08:49;;;;;;;44.20;29.80;;;;;;;8.69;98.23;97632.95;105344;1281;24390;-72
2022/09/26 02:11:17;;;;;;;45.90;30.80;;;;;;;8.72;98.01;97633.57;105025;1282;25246;-73
2022/09/26 02:13:54;;;;;;;46.70;30.10;;;;;;;8.74;98.14;97631.33;105366;1281;138668;-72
2022/09/26 02:17:05;;;;;;;42.90;28.20;;;;;;;8.77;98.01;97629.84;105322;1281;22746;-72
2022/09/26 02:19:46;;;;;;;40.30;27.80;;;;;;;8.79;97.52;97637.72;104536;1287;138430;-73
2022/09/26 02:22:14;;;;;;;39.80;26.20;;;;;;;8.79;97.25;97637.88;104591;1288;24352;-72
2022/09/26 02:24:41;;;;;;;37.10;26.20;;;;;;;8.76;96.58;97639.74;104418;1288;138685;-72
2022/09/26 02:27:08;;;;;;;39.80;25.50;;;;;;;8.75;96.50;97642.34;104630;1287;26585;-72
2022/09/26 02:29:35;;;;;;;36.40;24.40;;;;;;;8.73;96.34;97640.77;104697;1287;22577;-72
2022/09/26 02:32:17;;;;;;;30.90;21.40;;;;;;;8.69;95.20;97640.05;104514;1287;138453;-72
2022/09/26 02:34:47;;;;;;;31.80;21.70;;;;;;;8.56;94.34;97642.60;104598;1288;22547;-72
2022/09/26 02:37:14;;;;;;;;;;;;;;;8.46;94.29;97642.42;104500;1287;138424;-72
2022/09/26 02:39:44;;;;;;;30.20;18.40;;;;;;;8.38;94.26;97646.02;104676;1287;24265;-72
2022/09/26 02:42:16;;;;;;;29.40;19.30;;;;;;;8.31;94.40;97644.52;104603;1287;140589;-72
2022/09/26 02:45:05;;;;;;;30.20;20.50;;;;;;;8.27;94.63;97640.71;104619;1287;25232;-73
2022/09/26 02:48:04;;;;;;;33.40;21.70;;;;;;;8.24;94.94;97631.95;104533;1287;31802;-72
2022/09/26 02:50:45;;;;;;;;;;;;;;;8.22;95.19;97627.53;104705;1288;22646;-72
2022/09/26 02:53:19;;;;;;;33.00;22.50;;;;;;;8.22;95.52;97625.79;104792;1287;22556;-72
2022/09/26 02:56:25;;;;;;;37.60;25.40;;;;;;;8.23;95.59;97619.13;104608;1287;138432;-72
2022/09/26 02:59:21;;;;;;;37.10;24.30;;;;;;;8.25;96.14;97619.11;105279;1282;22899;-73
2022/09/26 03:01:59;;;;;;;44.00;26.30;;;;;;;8.28;96.35;97619.69;105169;1282;138901;-72
2022/09/26 03:04:33;;;;;;;44.60;29.00;;;;;;;8.33;96.66;97618.23;105223;1282;22731;-73
2022/09/26 03:07:06;;;;;;;44.20;29.10;;;;;;;8.37;96.96;97617.73;105205;1281;138243;-73
2022/09/26 03:09:33;;;;;;;47.00;29.90;;;;;;;8.41;96.99;97606.53;105059;1282;25321;-73
2022/09/26 03:12:03;;;;;;;47.60;31.10;;;;;;;8.45;97.47;97604.90;105034;1281;138575;-76
2022/09/26 03:14:33;;;;;;;48.00;30.80;;;;;;;8.49;97.70;97601.33;105051;1281;24337;-73
2022/09/26 03:17:02;;;;;;;47.30;30.70;;;;;;;8.52;97.92;97597.68;105300;1282;22573;-72
2022/09/26 03:19:35;;;;;;;43.70;30.80;;;;;;;8.57;98.28;97593.50;104886;1282;138358;-72
2022/09/26 03:22:03;;;;;;;44.70;29.80;;;;;;;8.62;98.39;97586.51;105028;1282;25327;-72
2022/09/26 03:24:31;;;;;;;44.30;29.10;;;;;;;8.68;98.43;97583.58;105151;1282;138674;-72
2022/09/26 03:27:01;;;;;;;41.90;28.50;;;;;;;8.72;98.36;97578.69;105313;1282;24276;-72
2022/09/26 03:29:30;;;;;;;38.00;27.50;;;;;;;8.75;98.23;97577.46;105497;1281;22560;-73
2022/09/26 03:31:59;;;;;;;37.20;26.10;;;;;;;8.77;97.99;97573.95;105143;1281;139723;-72
2022/09/26 03:34:27;;;;;;;34.60;24.50;;;;;;;8.78;97.47;97574.67;105248;1281;24449;-72
2022/09/26 03:36:56;;;;;;;31.00;22.70;;;;;;;8.77;97.28;97573.20;105593;1281;138464;-73
2022/09/26 03:39:23;;;;;;;34.20;23.90;;;;;;;8.75;96.85;97570.41;105484;1281;22545;-72
2022/09/26 03:42:04;;;;;;;32.20;23.60;;;;;;;8.72;96.22;97568.26;105225;1282;139228;-72
2022/09/26 03:44:31;;;;;;;34.50;23.60;;;;;;;8.69;96.30;97563.17;106709;1281;22601;-73
2022/09/26 03:47:16;;;;;;;34.20;23.80;;;;;;;8.70;96.88;97560.85;106660;1281;22553;-72
2022/09/26 03:49:45;;;;;;;34.90;23.40;;;;;;;8.72;96.96;97561.70;105334;1281;138261;-73
2022/09/26 03:52:12;;;;;;;30.80;22.80;;;;;;;8.73;96.91;97559.65;105077;1283;22608;-72
2022/09/26 03:54:39;;;;;;;34.60;24.60;;;;;;;8.75;97.02;97559.98;105339;1282;138962;-73
2022/09/26 03:57:08;;;;;;;40.00;26.20;;;;;;;8.76;97.07;97555.98;105371;1281;22550;-72
2022/09/26 03:59:38;;;;;;;39.00;26.10;;;;;;;8.77;97.17;97555.77;105409;1281;23978;-72
2022/09/26 04:02:07;;;;;;;40.70;27.30;;;;;;;8.76;97.28;97557.02;105488;1282;138811;-73
2022/09/26 04:04:36;;;;;;;39.40;28.10;;;;;;;8.77;97.53;97558.82;105117;1281;24404;-73
2022/09/26 04:07:03;;;;;;;39.00;26.90;;;;;;;8.79;97.64;97562.30;105013;1282;138426;-73
2022/09/26 04:09:30;;;;;;;41.00;28.50;;;;;;;8.82;98.10;97562.06;105109;1282;25439;-72
2022/09/26 04:11:57;;;;;;;39.50;27.10;;;;;;;8.85;98.08;97562.31;105480;1281;22549;-73
2022/09/26 04:14:24;;;;;;;42.60;27.50;;;;;;;8.88;98.20;97559.86;105050;1281;138660;-73
2022/09/26 04:16:55;;;;;;;39.90;27.10;;;;;;;8.94;98.45;97561.32;105191;1281;25548;-73
2022/09/26 04:19:27;;;;;;;40.50;27.70;;;;;;;8.98;98.49;97565.33;105428;1281;138698;-73
2022/09/26 04:21:54;;;;;;;37.70;26.20;;;;;;;9.03;98.49;97568.73;105481;1281;22557;-73
2022/09/26 04:24:21;;;;;;;33.60;24.30;;;;;;;9.05;98.06;97568.87;105373;1282;139019;-72
2022/09/26 04:26:48;;;;;;;29.60;22.40;;;;;;;9.06;97.71;97566.75;105261;1282;23362;-72
2022/09/26 04:29:15;;;;;;;30.20;21.60;;;;;;;9.05;97.12;97568.16;105415;1282;22568;-72
2022/09/26 04:31:52;;;;;;;35.70;22.60;;;;;;;9.04;96.98;97562.39;105419;1281;138437;-73
2022/09/26 04:34:23;;;;;;;31.80;23.40;;;;;;;9.04;97.05;97565.17;105671;1281;25536;-72
2022/09/26 04:36:51;;;;;;;32.80;21.40;;;;;;;9.04;96.53;97559.56;105285;1282;138353;-72
2022/09/26 04:39:18;;;;;;;34.10;22.70;;;;;;;9.02;96.60;97558.85;105448;1281;22624;-72
2022/09/26 04:41:50;;;;;;;36.30;25.70;;;;;;;9.02;96.67;97553.80;105389;1281;24381;-72
2022/09/26 04:44:20;;;;;;;37.30;26.30;;;;;;;9.03;96.89;97551.58;105336;1282;138256;-72
2022/09/26 04:46:47;;;;;;;42.40;26.90;;;;;;;9.06;97.32;97549.42;105243;1282;25346;-72
2022/09/26 04:49:15;;;;;;;39.60;27.60;;;;;;;9.08;97.35;97548.69;105275;1282;138528;-73
2022/09/26 04:51:42;;;;;;;42.10;28.80;;;;;;;9.09;97.54;97541.52;105183;1282;23519;-73
2022/09/26 04:54:11;;;;;;;41.80;29.50;;;;;;;9.13;97.83;97540.70;105084;1282;138614;-73
2022/09/26 04:56:41;;;;;;;42.40;28.80;;;;;;;9.17;97.96;97542.52;105370;1281;22559;-72
2022/09/26 04:59:08;;;;;;;42.70;30.10;;;;;;;9.20;97.98;97534.34;105191;1282;24393;-72
2022/09/26 05:02:02;;;;;;;42.80;29.20;;;;;;;9.24;98.05;97535.79;105177;1282;138414;-72
2022/09/26 05:04:35;;;;;;;36.60;25.40;;;;;;;9.27;97.98;97534.02;105472;1282;22669;-72
2022/09/26 05:07:03;;;;;;;37.70;27.30;;;;;;;9.25;97.57;97533.02;105188;1281;138701;-73
2022/09/26 05:09:32;;;;;;;40.60;26.50;;;;;;;9.26;97.57;97527.71;105406;1282;24326;-72
2022/09/26 05:12:02;;;;;;;39.40;27.00;;;;;;;9.29;98.03;97523.66;105318;1282;138491;-73
2022/09/26 05:14:30;;;;;;;36.70;27.00;;;;;;;9.33;97.96;97521.85;105501;1281;25643;-72
2022/09/26 05:16:57;;;;;;;46.20;28.70;;;;;;;9.36;97.99;97518.83;105506;1281;24252;-72
2022/09/26 05:19:25;;;;;;;38.30;26.80;;;;;;;9.40;98.28;97522.55;105067;1282;139326;-72
2022/09/26 05:22:30;;;;;;;37.30;26.10;;;;;;;9.43;97.85;97523.05;105357;1281;23349;-72
2022/09/26 05:27:43;;;;;;;34.50;24.00;;;;;;;9.48;97.96;97515.81;105348;1281;22566;-72
2022/09/26 05:30:11;;;;;;;36.10;25.90;;;;;;;9.53;98.02;97519.59;105297;1282;138851;-73
2022/09/26 05:32:39;;;;;;;40.40;26.50;;;;;;;9.56;97.90;97516.67;105389;1281;25355;-72
2022/09/26 05:35:07;;;;;;;36.50;25.80;;;;;;;9.59;97.72;97517.95;105475;1281;22598;-72
2022/09/26 05:37:37;;;;;;;36.20;24.60;;;;;;;9.61;97.60;97522.35;105153;1282;139360;-72
2022/09/26 05:42:52;;;;;;;35.60;23.90;;;;;;;9.56;96.37;97524.89;105387;1281;138305;-72
2022/09/26 05:45:19;;;;;;;35.60;23.70;;;;;;;9.52;96.12;97521.76;104971;1283;24000;-72
2022/09/26 05:47:48;;;;;;;33.80;22.30;;;;;;;9.53;96.94;97525.85;105165;1282;24117;-74
2022/09/26 05:50:21;;;;;;;28.90;20.90;;;;;;;9.68;98.36;97524.88;105227;1282;138283;-75
2022/09/26 05:52:57;;;;;;;29.60;21.00;;;;;;;9.83;97.53;97521.52;105259;1282;25356;-72
2022/09/26 05:55:25;;;;;;;30.90;20.90;;;;;;;9.93;96.74;97522.66;104994;1282;139033;-71
2022/09/26 05:58:12;;;;;;;30.20;21.10;;;;;;;10.01;96.27;97523.46;105176;1282;24297;-71
2022/09/26 06:01:13;;;;;;;31.00;21.50;;;;;;;10.07;96.28;97520.51;104782;1281;138591;-71
2022/09/26 06:03:45;;;;;;;36.20;22.60;;;;;;;10.14;96.28;97515.80;105287;1281;25385;-72
2022/09/26 06:06:19;;;;;;;39.20;24.30;;;;;;;10.21;96.29;97517.73;105433;1281;139713;-71
2022/09/26 06:08:47;;;;;;;40.30;26.70;;;;;;;10.28;96.64;97514.02;105533;1282;25401;-72
2022/09/26 06:11:29;;;;;;;43.10;27.90;;;;;;;10.36;96.68;97520.44;105568;1281;22534;-72
2022/09/26 06:14:01;;;;;;;39.90;27.50;;;;;;;10.44;97.09;97518.06;105299;1281;138600;-72
2022/09/26 06:16:28;;;;;;;37.70;28.00;;;;;;;10.55;96.42;97514.56;105328;1281;24300;-72
2022/09/26 06:18:56;;;;;;;41.30;29.30;;;;;;;10.62;96.66;97517.85;105121;1281;138917;-72
2022/09/26 06:21:23;;;;;;;39.60;29.60;;;;;;;10.69;96.48;97514.98;105337;1282;25238;-72
2022/09/26 06:23:54;;;;;;;43.90;30.20;;;;;;;10.76;96.63;97514.17;105184;1282;22774;-72
2022/09/26 06:26:26;;;;;;;42.00;30.30;;;;;;;10.83;96.36;97516.59;105304;1281;139223;-72
2022/09/26 06:29:01;;;;;;;47.20;32.90;;;;;;;10.88;96.57;97512.55;105032;1282;24237;-72
2022/09/26 06:31:33;;;;;;;45.50;31.60;;;;;;;10.94;96.54;97510.55;105003;1282;139067;-72
2022/09/26 06:34:11;;;;;;;46.60;31.90;;;;;;;11.02;96.43;97501.52;105651;1281;22556;-73
2022/09/26 06:37:04;;;;;;;41.00;30.50;;;;;;;11.12;96.39;97499.83;105194;1281;139407;-72
2022/09/26 06:39:35;;;;;;;48.40;31.10;;;;;;;11.19;96.21;97504.63;105123;1282;25460;-72
2022/09/26 06:42:06;;;;;;;52.00;33.90;;;;;;;11.23;95.82;97502.89;105702;1281;139167;-72
2022/09/26 06:45:10;;;;;;;41.40;31.30;;;;;;;11.31;95.92;97506.81;104831;1287;22863;-73
2022/09/26 06:48:00;;;;;;;49.30;35.20;;;;;;;11.43;96.77;97508.48;105455;1281;23233;-73
2022/09/26 06:50:31;;;;;;;47.70;34.20;;;;;;;11.58;96.53;97506.41;105453;1281;25427;-73
2022/09/26 06:53:04;;;;;;;54.40;36.30;;;;;;;11.76;96.10;97505.61;105496;1281;25249;-73
2022/09/26 06:55:31;;;;;;;48.50;34.90;;;;;;;11.91;95.82;97501.93;105269;1282;138768;-73
2022/09/26 06:57:59;;;;;;;43.00;31.50;;;;;;;12.06;94.78;97499.50;105430;1281;24294;-73
2022/09/26 07:00:29;;;;;;;43.30;32.40;;;;;;;12.20;94.30;97502.39;105673;1281;138903;-73
2022/09/26 07:03:15;;;;;;;43.40;32.20;;;;;;;12.35;94.03;97502.44;105507;1282;24322;-73
2022/09/26 07:05:47;;;;;;;44.90;32.30;;;;;;;12.44;93.38;97503.59;105128;1283;23943;-73
2022/09/26 07:08:15;;;;;;;42.70;31.20;;;;;;;12.53;93.14;97501.80;105326;1281;139282;-73
2022/09/26 07:10:43;;;;;;;42.90;32.00;;;;;;;12.61;92.59;97504.83;106001;1279;25481;-73
2022/09/26 07:13:16;;;;;;;44.60;30.90;;;;;;;12.68;92.37;97501.50;105284;1281;139192;-74
2022/09/26 07:15:45;;;;;;;42.90;31.50;;;;;;;12.72;91.60;97501.31;105371;1282;25433;-74
2022/09/26 07:18:31;;;;;;;42.30;31.30;;;;;;;12.75;91.36;97501.95;105333;1283;140237;-74
2022/09/26 07:21:13;;;;;;;45.40;32.20;;;;;;;12.81;91.30;97503.28;105445;1281;23322;-73
2022/09/26 07:23:46;;;;;;;43.80;31.60;;;;;;;12.87;91.14;97499.73;105054;1283;24533;-73
2022/09/26 07:26:13;;;;;;;41.30;29.30;;;;;;;12.96;91.13;97499.29;105576;1282;138722;-73
2022/09/26 07:28:41;;;;;;;42.10;30.80;;;;;;;13.03;90.36;97496.95;105254;1282;25662;-73
2022/09/26 07:31:08;;;;;;;41.40;30.70;;;;;;;13.08;90.38;97494.99;104838;1282;24323;-73
2022/09/26 07:34:03;;;;;;;42.70;32.20;;;;;;;13.16;90.37;97491.71;104937;1282;139243;-73
2022/09/26 07:36:30;;;;;;;43.10;30.00;;;;;;;13.21;89.95;97493.36;105503;1283;25334;-73
2022/09/26 07:39:00;;;;;;;40.90;29.20;;;;;;;13.27;89.72;97489.38;105837;1282;24254;-73
2022/09/26 07:41:29;;;;;;;37.20;28.30;;;;;;;13.31;89.31;97485.11;105040;1282;25447;-73
2022/09/26 07:43:57;;;;;;;;;;;;;;;13.31;88.91;97483.96;105267;1282;24055;-73
2022/09/26 07:52:26;;;;;;;32.70;25.20;;;;;;;13.25;88.66;97489.23;105666;1281;22560;-73
2022/09/26 07:55:26;;;;;;;;;;;;;;;13.26;88.45;97493.81;104441;1282;139769;-73
2022/09/26 07:58:26;;;;;;;30.70;24.40;;;;;;;13.25;88.09;97497.50;105177;1282;22711;-73
2022/09/26 08:00:53;;;;;;;32.80;24.40;;;;;;;13.24;88.12;97498.16;105072;1282;138748;-73
2022/09/26 08:03:49;;;;;;;35.10;26.10;;;;;;;13.18;87.71;97496.51;105460;1281;30368;-73
2022/09/26 08:06:32;;;;;;;32.80;25.30;;;;;;;13.17;88.04;97495.20;105455;1282;138960;-73
2022/09/26 08:08:59;;;;;;;30.80;24.90;;;;;;;13.21;88.26;97493.38;105593;1282;24548;-73
2022/09/26 08:11:45;;;;;;;35.90;25.60;;;;;;;13.24;88.14;97495.27;105301;1281;138802;-73
2022/09/26 08:14:30;;;;;;;26.30;21.50;;;;;;;13.27;88.09;97496.44;105239;1282;30762;-73
2022/09/26 08:17:19;;;;;;;31.40;24.20;;;;;;;13.29;87.75;97493.47;105725;1282;138805;-73
2022/09/26 08:19:47;;;;;;;34.10;23.80;;;;;;;13.26;87.62;97495.40;105386;1282;24237;-73
2022/09/26 08:22:15;;;;;;;31.20;24.40;;;;;;;13.27;87.94;97486.87;105252;1282;22738;-74
2022/09/26 08:24:44;;;;;;;32.00;25.10;;;;;;;13.30;87.97;97487.40;105282;1282;140675;-73
2022/09/26 08:27:46;;;;;;;31.50;22.80;;;;;;;13.34;87.96;97484.92;105100;1282;24266;-73
2022/09/26 08:30:13;;;;;;;31.00;25.10;;;;;;;13.36;87.48;97488.79;104988;1282;139021;-73
2022/09/26 08:32:41;;;;;;;31.00;25.00;;;;;;;13.36;87.44;97488.02;105520;1281;25263;-74
2022/09/26 08:35:13;;;;;;;32.50;25.50;;;;;;;13.38;87.50;97488.39;105442;1281;139557;-74
2022/09/26 08:38:02;;;;;;;32.60;24.50;;;;;;;13.39;87.48;97487.78;105089;1282;22569;-73
2022/09/26 08:41:17;;;;;;;33.80;26.10;;;;;;;13.37;87.27;97487.80;105408;1281;24268;-73
2022/09/26 08:44:30;;;;;;;34.10;25.50;;;;;;;13.30;87.34;97491.00;105391;1282;25492;-73
2022/09/26 08:47:28;;;;;;;38.30;27.50;;;;;;;13.28;87.38;97493.54;105358;1283;139155;-73
2022/09/26 08:50:32;;;;;;;35.00;25.80;;;;;;;13.27;87.66;97493.38;105409;1282;25371;-73
2022/09/26 08:53:15;;;;;;;37.80;26.80;;;;;;;13.29;87.88;97491.45;105807;1281;23377;-72
2022/09/26 08:55:52;;;;;;;35.70;26.40;;;;;;;13.30;87.98;97490.95;105675;1281;26649;-72
2022/09/26 08:58:25;;;;;;;37.30;26.50;;;;;;;13.30;87.91;97489.73;105003;1284;22742;-72
2022/09/26 09:01:03;;;;;;;35.50;26.90;;;;;;;13.31;88.00;97487.67;105013;1283;138645;-72
2022/09/26 09:03:52;;;;;;;33.20;25.60;;;;;;;13.29;87.90;97490.90;105061;1281;25387;-71
2022/09/26 09:06:27;;;;;;;32.20;25.40;;;;;;;13.29;88.18;97493.15;105806;1283;141286;-72
2022/09/26 09:08:56;;;;;;;36.40;26.80;;;;;;;13.29;88.10;97492.98;105295;1284;22543;-71
2022/09/26 09:11:50;;;;;;;31.70;25.50;;;;;;;13.30;87.97;97504.06;105189;1281;139576;-72
2022/09/26 09:14:39;;;;;;;35.40;26.40;;;;;;;13.30;88.00;97497.72;105556;1281;22689;-71
2022/09/26 09:17:38;;;;;;;33.80;24.90;;;;;;;13.32;88.08;97496.81;105859;1281;138854;-71
2022/09/26 09:20:43;;;;;;;33.50;26.50;;;;;;;13.29;88.14;97494.51;105439;1281;25372;-71
2022/09/26 09:23:48;;;;;;;37.00;27.10;;;;;;;13.25;88.14;97493.98;104913;1283;140313;-73
2022/09/26 09:26:29;;;;;;;33.70;24.60;;;;;;;13.19;88.28;97499.08;105365;1281;25323;-74
2022/09/26 09:29:04;;;;;;;35.70;25.10;;;;;;;13.15;88.37;97498.46;105428;1281;23748;-74
2022/09/26 09:31:37;;;;;;;32.70;24.40;;;;;;;13.11;88.58;97500.38;105158;1281;25269;-74
2022/09/26 09:34:26;;;;;;;28.00;21.60;;;;;;;13.09;88.82;97500.08;105324;1281;23963;-74
2022/09/26 09:37:20;;;;;;;29.70;22.40;;;;;;;13.06;88.56;97499.98;105238;1281;139417;-74
2022/09/26 09:40:37;;;;;;;29.40;22.40;;;;;;;13.04;88.90;97503.23;105468;1282;25429;-74
2022/09/26 09:43:14;;;;;;;32.60;23.60;;;;;;;13.04;89.07;97503.07;105558;1282;139433;-74
2022/09/26 09:45:49;;;;;;;32.70;24.30;;;;;;;13.03;89.46;97502.09;106359;1281;22547;-75
2022/09/26 09:48:17;;;;;;;34.20;26.00;;;;;;;13.02;89.41;97497.56;106213;1281;139392;-75
2022/09/26 09:51:00;;;;;;;35.70;25.50;;;;;;;13.03;89.73;97495.64;105398;1284;25532;-74
2022/09/26 09:53:33;;;;;;;36.00;26.90;;;;;;;13.05;89.86;97498.08;105204;1284;142111;-75
2022/09/26 09:56:35;;;;;;;34.30;26.90;;;;;;;13.09;90.18;97497.95;105341;1281;22562;-75
2022/09/26 09:59:18;;;;;;;34.30;26.40;;;;;;;13.14;90.30;97498.02;105137;1284;139155;-75
2022/09/26 10:02:38;;;;;;;35.70;27.80;;;;;;;13.16;89.97;97497.79;105279;1284;22543;-74
2022/09/26 10:05:47;;;;;;;33.30;26.10;;;;;;;13.18;89.87;97494.91;105651;1281;139231;-74
2022/09/26 10:08:26;;;;;;;33.60;26.40;;;;;;;13.20;90.09;97490.53;105488;1281;22557;-74
2022/09/26 10:11:14;;;;;;;37.30;27.60;;;;;;;13.24;90.33;97493.73;105586;1281;139644;-74
2022/09/26 10:14:18;;;;;;;36.30;26.60;;;;;;;13.28;90.42;97489.86;105410;1281;24294;-74
2022/09/26 10:17:09;;;;;;;36.60;29.30;;;;;;;13.35;90.45;97488.75;105338;1281;139310;-73
2022/09/26 10:19:56;;;;;;;38.80;28.80;;;;;;;13.41;90.23;97487.32;105276;1284;24267;-74
2022/09/26 10:22:31;;;;;;;40.70;29.70;;;;;;;13.48;90.05;97491.14;105111;1281;22772;-74
2022/09/26 10:25:05;;;;;;;38.60;28.40;;;;;;;13.56;89.76;97485.16;105234;1281;139261;-73
2022/09/26 10:27:45;;;;;;;38.30;29.60;;;;;;;13.63;89.47;97486.57;105362;1284;31778;-74
2022/09/26 10:30:18;;;;;;;39.30;28.70;;;;;;;13.69;89.58;97485.42;105112;1284;138880;-74
2022/09/26 10:32:50;;;;;;;35.80;27.20;;;;;;;13.75;89.20;97482.57;105691;1281;25580;-73
2022/09/26 10:35:44;;;;;;;35.70;27.00;;;;;;;13.82;88.91;97474.77;105230;1282;140285;-73
2022/09/26 10:38:26;;;;;;;32.80;27.50;;;;;;;13.89;88.59;97465.56;106336;1282;25511;-73
2022/09/26 10:41:02;;;;;;;37.30;28.50;;;;;;;13.96;88.80;97463.79;105294;1280;138783;-73
2022/09/26 10:43:35;;;;;;;35.20;28.00;;;;;;;14.05;89.32;97463.35;105474;1281;22770;-73
2022/09/26 10:46:12;;;;;;;39.20;28.70;;;;;;;14.14;89.31;97461.16;105325;1282;22563;-73
2022/09/26 10:49:01;;;;;;;31.10;23.50;;;;;;;14.25;88.59;97455.71;106585;1281;138599;-74
2022/09/26 10:51:55;;;;;;;34.50;26.40;;;;;;;14.34;88.31;97454.86;108614;1282;23700;-74
2022/09/26 10:54:33;;;;;;;34.90;24.20;;;;;;;14.43;88.32;97450.27;108715;1281;138884;-74
2022/09/26 10:57:01;;;;;;;27.10;20.10;;;;;;;14.51;87.95;97447.63;108735;1281;22400;-73
2022/09/26 10:59:33;;;;;;;29.00;19.30;;;;;;;14.59;87.34;97447.60;107435;1282;139677;-73
2022/09/26 11:02:02;;;;;;;22.60;17.60;;;;;;;14.65;86.75;97448.45;106431;1282;22635;-73
2022/09/26 11:07:41;;;;;;;25.90;19.40;;;;;;;14.75;86.21;97446.55;105344;1281;22547;-72
2022/09/26 11:10:33;;;;;;;32.50;22.20;;;;;;;14.81;85.93;97439.40;105338;1281;24973;-72
2022/09/26 11:13:16;;;;;;;33.90;24.60;;;;;;;14.85;85.71;97438.17;105561;1280;139205;-72
2022/09/26 11:16:00;;;;;;;35.10;24.80;;;;;;;14.90;85.98;97442.31;105382;1282;25392;-73
2022/09/26 11:18:57;;;;;;;36.20;25.10;;;;;;;14.94;85.84;97437.10;105233;1283;138543;-73
2022/09/26 11:21:50;;;;;;;34.80;24.70;;;;;;;14.96;85.44;97437.18;105889;1279;23946;-73
2022/09/26 11:24:36;;;;;;;36.10;26.10;;;;;;;14.97;85.44;97435.52;105359;1281;139608;-73
2022/09/26 11:27:32;;;;;;;34.00;24.40;;;;;;;14.97;85.75;97435.75;105439;1281;22563;-73
2022/09/26 11:30:08;;;;;;;32.50;23.80;;;;;;;14.96;85.47;97433.13;105421;1282;139692;-73
2022/09/26 11:32:41;;;;;;;28.90;18.90;;;;;;;14.97;85.53;97431.61;105706;1280;22798;-73
2022/09/26 11:35:43;;;;;;;27.10;19.30;;;;;;;14.96;85.29;97427.48;105824;1281;140167;-73
2022/09/26 11:38:37;;;;;;;22.70;17.20;;;;;;;14.94;85.22;97423.30;105417;1284;24445;-73
2022/09/26 11:41:10;;;;;;;21.60;16.20;;;;;;;14.92;84.55;97413.07;105052;1282;171811;-73
2022/09/26 11:43:58;;;;;;;21.40;15.00;;;;;;;14.91;84.53;97409.61;105202;1282;22578;-72
2022/09/26 11:47:03;;;;;;;17.90;14.30;;;;;;;14.88;84.21;97401.73;105560;1281;22550;-73
2022/09/26 11:50:11;;;;;;;17.80;14.80;;;;;;;14.88;84.48;97397.94;105504;1281;31172;-72
2022/09/26 11:53:04;;;;;;;17.90;15.20;;;;;;;14.93;84.36;97397.21;105175;1283;22709;-73
2022/09/26 11:55:36;;;;;;;21.60;16.20;;;;;;;15.02;84.71;97397.38;105412;1283;25628;-72
2022/09/26 11:58:18;;;;;;;16.70;14.20;;;;;;;15.14;84.15;97404.25;105261;1281;24150;-72
2022/09/26 12:00:55;;;;;;;16.70;13.20;;;;;;;15.23;83.14;97410.25;105550;1280;139077;-72
2022/09/26 12:03:38;;;;;;;15.00;12.00;;;;;;;15.29;82.73;97406.24;105611;1279;25257;-73
2022/09/26 12:06:24;;;;;;;18.40;13.50;;;;;;;15.36;82.60;97401.66;105695;1281;22574;-72
2022/09/26 12:09:10;;;;;;;16.10;12.80;;;;;;;15.56;82.76;97395.43;105569;1281;138933;-72
2022/09/26 12:11:47;;;;;;;14.70;13.10;;;;;;;15.82;82.96;97395.50;105435;1281;22569;-71
2022/09/26 12:14:34;;;;;;;15.00;10.90;;;;;;;16.10;81.60;97397.79;105386;1281;141241;-72